Aviation Digital Data Service (ADDS)

Output produced by METARs form (0038 UTC 20 April 2019)
found at http://www.aviationweather.gov/metar/data/
 
METAR text: LEAL 200030Z 05020KT 020V090 2000 -RA FEW008 SCT012 OVC023 15/14 Q1012 NOSIG
Conditions at: LEAL (ALICANTE/EL ALTE, ES) observed 0030 UTC 20 April 2019
Temperature: 15.0°C (59°F)
Dewpoint: 14.0°C (57°F) [RH = 94%]
Pressure (altimeter): 29.88 inches Hg (1012.0 mb)
Winds: from the NE (50 degrees) at 23 MPH (20 knots; 10.3 m/s)
Visibility: 1.24 miles (2.00 km)
Ceiling: 2300 feet AGL
Clouds: few clouds at 800 feet AGL
scattered clouds at 1200 feet AGL
overcast cloud deck at 2300 feet AGL
Weather: -RA  (light rain)

METAR text: LEAL 200005Z 06019G29KT 2000 RA FEW008 SCT012 OVC023 16/14 Q1013 NOSIG
Conditions at: LEAL (ALICANTE/EL ALTE, ES) observed 0005 UTC 20 April 2019
Temperature: 16.0°C (61°F)
Dewpoint: 14.0°C (57°F) [RH = 88%]
Pressure (altimeter): 29.91 inches Hg (1013.0 mb)
Winds: from the ENE (60 degrees) at 22 MPH (19 knots; 9.8 m/s)
gusting to 33 MPH (29 knots; 14.9 m/s)
Visibility: 1.24 miles (2.00 km)
Ceiling: 2300 feet AGL
Clouds: few clouds at 800 feet AGL
scattered clouds at 1200 feet AGL
overcast cloud deck at 2300 feet AGL
Weather: RA  (moderate rain)

METAR text: LEAL 200000Z 05018G30KT 6000 -RA FEW008 SCT012 OVC023 15/14 Q1013 NOSIG
Conditions at: LEAL (ALICANTE/EL ALTE, ES) observed 0000 UTC 20 April 2019
Temperature: 15.0°C (59°F)
Dewpoint: 14.0°C (57°F) [RH = 94%]
Pressure (altimeter): 29.91 inches Hg (1013.0 mb)
Winds: from the NE (50 degrees) at 21 MPH (18 knots; 9.3 m/s)
gusting to 34 MPH (30 knots; 15.4 m/s)
Visibility: 4 miles ( 6 km)
Ceiling: 2300 feet AGL
Clouds: few clouds at 800 feet AGL
scattered clouds at 1200 feet AGL
overcast cloud deck at 2300 feet AGL
Weather: -RA  (light rain)

METAR text: LEAL 192330Z 04012KT 6000 RA FEW008 SCT012 OVC023 16/14 Q1013 NOSIG
Conditions at: LEAL (ALICANTE/EL ALTE, ES) observed 2330 UTC 19 April 2019
Temperature: 16.0°C (61°F)
Dewpoint: 14.0°C (57°F) [RH = 88%]
Pressure (altimeter): 29.91 inches Hg (1013.0 mb)
Winds: from the NE (40 degrees) at 14 MPH (12 knots; 6.2 m/s)
Visibility: 4 miles ( 6 km)
Ceiling: 2300 feet AGL
Clouds: few clouds at 800 feet AGL
scattered clouds at 1200 feet AGL
overcast cloud deck at 2300 feet AGL
Weather: RA  (moderate rain)

METAR text: LEAL 192300Z 07008KT 040V100 4000 +RA FEW008 SCT015 OVC023 15/14 Q1014 NOSIG
Conditions at: LEAL (ALICANTE/EL ALTE, ES) observed 2300 UTC 19 April 2019
Temperature: 15.0°C (59°F)
Dewpoint: 14.0°C (57°F) [RH = 94%]
Pressure (altimeter): 29.94 inches Hg (1014.0 mb)
Winds: from the ENE (70 degrees) at 9 MPH (8 knots; 4.1 m/s)
Visibility: 2.49 miles (4.01 km)
Ceiling: 2300 feet AGL
Clouds: few clouds at 800 feet AGL
scattered clouds at 1500 feet AGL
overcast cloud deck at 2300 feet AGL
Weather: +RA  (heavy rain)

METAR text: LEAL 192253Z 07009KT 040V100 2000 +RA FEW008 SCT015 OVC023 15/14 Q1014 NOSIG
Conditions at: LEAL (ALICANTE/EL ALTE, ES) observed 2253 UTC 19 April 2019
Temperature: 15.0°C (59°F)
Dewpoint: 14.0°C (57°F) [RH = 94%]
Pressure (altimeter): 29.94 inches Hg (1014.0 mb)
Winds: from the ENE (70 degrees) at 10 MPH (9 knots; 4.6 m/s)
Visibility: 1.24 miles (2.00 km)
Ceiling: 2300 feet AGL
Clouds: few clouds at 800 feet AGL
scattered clouds at 1500 feet AGL
overcast cloud deck at 2300 feet AGL
Weather: +RA  (heavy rain)

METAR text: LEAL 192243Z 08011KT 060V120 1000 R10/P2000 R28/P2000 +TSRA FEW008CB SCT015 OVC023 15/14 Q1014 NOSIG
Conditions at: LEAL (ALICANTE/EL ALTE, ES) observed 2243 UTC 19 April 2019
Temperature: 15.0°C (59°F)
Dewpoint: 14.0°C (57°F) [RH = 94%]
Pressure (altimeter): 29.94 inches Hg (1014.0 mb)
Winds: from the E (80 degrees) at 13 MPH (11 knots; 5.7 m/s)
Visibility: 0.62 miles (1.00 km)
Ceiling: 2300 feet AGL
Clouds: few clouds at 800 feet AGL
scattered clouds at 1500 feet AGL
overcast cloud deck at 2300 feet AGL
Weather: +TSRA  (heavy rain associated with thunderstorm(s))

METAR text: LEAL 192235Z VRB05KT 1000 R10/P2000 R28/P2000 +RA FEW008 SCT015 OVC023 15/14 Q1014 NOSIG
Conditions at: LEAL (ALICANTE/EL ALTE, ES) observed 2235 UTC 19 April 2019
Temperature: 15.0°C (59°F)
Dewpoint: 14.0°C (57°F) [RH = 94%]
Pressure (altimeter): 29.94 inches Hg (1014.0 mb)
Winds: variable direction winds at 6 MPH (5 knots; 2.6 m/s)
Visibility: 0.62 miles (1.00 km)
Ceiling: 2300 feet AGL
Clouds: few clouds at 800 feet AGL
scattered clouds at 1500 feet AGL
overcast cloud deck at 2300 feet AGL
Weather: +RA  (heavy rain)

METAR text: LEAL 192230Z VRB02KT 2000 +RA FEW008 SCT015 OVC023 15/14 Q1014 NOSIG
Conditions at: LEAL (ALICANTE/EL ALTE, ES) observed 2230 UTC 19 April 2019
Temperature: 15.0°C (59°F)
Dewpoint: 14.0°C (57°F) [RH = 94%]
Pressure (altimeter): 29.94 inches Hg (1014.0 mb)
Winds: variable direction winds at 2 MPH (2 knots; 1.0 m/s)
Visibility: 1.24 miles (2.00 km)
Ceiling: 2300 feet AGL
Clouds: few clouds at 800 feet AGL
scattered clouds at 1500 feet AGL
overcast cloud deck at 2300 feet AGL
Weather: +RA  (heavy rain)

METAR text: LEAL 192218Z 09001KT 2000 +RA FEW008 SCT015 OVC027 15/14 Q1014 NOSIG
Conditions at: LEAL (ALICANTE/EL ALTE, ES) observed 2218 UTC 19 April 2019
Temperature: 15.0°C (59°F)
Dewpoint: 14.0°C (57°F) [RH = 94%]
Pressure (altimeter): 29.94 inches Hg (1014.0 mb)
Winds: from the E (90 degrees) at 1 MPH (1 knots; 0.5 m/s)
Visibility: 1.24 miles (2.00 km)
Ceiling: 2700 feet AGL
Clouds: few clouds at 800 feet AGL
scattered clouds at 1500 feet AGL
overcast cloud deck at 2700 feet AGL
Weather: +RA  (heavy rain)

METAR text: LEAL 192200Z 02010KT 350V060 8000 -RA FEW008CB SCT015 OVC027 15/14 Q1014 TEMPO TS
Conditions at: LEAL (ALICANTE/EL ALTE, ES) observed 2200 UTC 19 April 2019
Temperature: 15.0°C (59°F)
Dewpoint: 14.0°C (57°F) [RH = 94%]
Pressure (altimeter): 29.94 inches Hg (1014.0 mb)
Winds: from the NNE (20 degrees) at 12 MPH (10 knots; 5.1 m/s)
Visibility: 5 miles ( 8 km)
Ceiling: 2700 feet AGL
Clouds: few clouds at 800 feet AGL
scattered clouds at 1500 feet AGL
overcast cloud deck at 2700 feet AGL
Weather: -RA  (light rain)

METAR text: LEAL 192130Z 04011KT 2000 RA FEW008CB SCT009 OVC018 15/14 Q1015 TEMPO TS
Conditions at: LEAL (ALICANTE/EL ALTE, ES) observed 2130 UTC 19 April 2019
Temperature: 15.0°C (59°F)
Dewpoint: 14.0°C (57°F) [RH = 94%]
Pressure (altimeter): 29.97 inches Hg (1015.0 mb)
Winds: from the NE (40 degrees) at 13 MPH (11 knots; 5.7 m/s)
Visibility: 1.24 miles (2.00 km)
Ceiling: 1800 feet AGL
Clouds: few clouds at 800 feet AGL
scattered clouds at 900 feet AGL
overcast cloud deck at 1800 feet AGL
Weather: RA  (moderate rain)

METAR text: LEAL 192100Z 04007KT 020V100 1500 +RA SCT007 OVC018 15/14 Q1015 NOSIG
Conditions at: LEAL (ALICANTE/EL ALTE, ES) observed 2100 UTC 19 April 2019
Temperature: 15.0°C (59°F)
Dewpoint: 14.0°C (57°F) [RH = 94%]
Pressure (altimeter): 29.97 inches Hg (1015.0 mb)
Winds: from the NE (40 degrees) at 8 MPH (7 knots; 3.6 m/s)
Visibility: 0.93 miles (1.50 km)
Ceiling: 1800 feet AGL
Clouds: scattered clouds at 700 feet AGL
overcast cloud deck at 1800 feet AGL
Weather: +RA  (heavy rain)

METAR text: LEAL 192030Z 04005KT 340V100 1500 +RA SCT007 OVC009 15/14 Q1015 NOSIG
Conditions at: LEAL (ALICANTE/EL ALTE, ES) observed 2030 UTC 19 April 2019
Temperature: 15.0°C (59°F)
Dewpoint: 14.0°C (57°F) [RH = 94%]
Pressure (altimeter): 29.97 inches Hg (1015.0 mb)
Winds: from the NE (40 degrees) at 6 MPH (5 knots; 2.6 m/s)
Visibility: 0.93 miles (1.50 km)
Ceiling: 900 feet AGL
Clouds: scattered clouds at 700 feet AGL
overcast cloud deck at 900 feet AGL
Weather: +RA  (heavy rain)

METAR text: LEAL 192010Z VRB03KT 2000 +RA FEW010 BKN025 OVC032 15/14 Q1015 NOSIG
Conditions at: LEAL (ALICANTE/EL ALTE, ES) observed 2010 UTC 19 April 2019
Temperature: 15.0°C (59°F)
Dewpoint: 14.0°C (57°F) [RH = 94%]
Pressure (altimeter): 29.97 inches Hg (1015.0 mb)
Winds: variable direction winds at 3 MPH (3 knots; 1.5 m/s)
Visibility: 1.24 miles (2.00 km)
Ceiling: 2500 feet AGL
Clouds: few clouds at 1000 feet AGL
broken clouds at 2500 feet AGL
overcast cloud deck at 3200 feet AGL
Weather: +RA  (heavy rain)

METAR text: LEAL 192000Z 04009KT 020V160 8000 RA FEW010 BKN025 OVC032 15/14 Q1015 NOSIG
Conditions at: LEAL (ALICANTE/EL ALTE, ES) observed 2000 UTC 19 April 2019
Temperature: 15.0°C (59°F)
Dewpoint: 14.0°C (57°F) [RH = 94%]
Pressure (altimeter): 29.97 inches Hg (1015.0 mb)
Winds: from the NE (40 degrees) at 10 MPH (9 knots; 4.6 m/s)
Visibility: 5 miles ( 8 km)
Ceiling: 2500 feet AGL
Clouds: few clouds at 1000 feet AGL
broken clouds at 2500 feet AGL
overcast cloud deck at 3200 feet AGL
Weather: RA  (moderate rain)

METAR text: LEAL 191946Z 02009KT 350V060 2500 +RA FEW010 OVC030 14/13 Q1015 BECMG 06015KT
Conditions at: LEAL (ALICANTE/EL ALTE, ES) observed 1946 UTC 19 April 2019
Temperature: 14.0°C (57°F)
Dewpoint: 13.0°C (55°F) [RH = 94%]
Pressure (altimeter): 29.97 inches Hg (1015.0 mb)
Winds: from the NNE (20 degrees) at 10 MPH (9 knots; 4.6 m/s)
Visibility: 1.55 miles (2.49 km)
Ceiling: 3000 feet AGL
Clouds: few clouds at 1000 feet AGL
overcast cloud deck at 3000 feet AGL
Weather: +RA  (heavy rain)

METAR text: LEAL 191942Z 01007KT 340V050 1300 R10/P2000 +RA FEW005 OVC010 14/13 Q1015 BECMG 06015KT
Conditions at: LEAL (ALICANTE/EL ALTE, ES) observed 1942 UTC 19 April 2019
Temperature: 14.0°C (57°F)
Dewpoint: 13.0°C (55°F) [RH = 94%]
Pressure (altimeter): 29.97 inches Hg (1015.0 mb)
Winds: from the N (10 degrees) at 8 MPH (7 knots; 3.6 m/s)
Visibility: 0.81 miles (1.30 km)
Ceiling: 1000 feet AGL
Clouds: few clouds at 500 feet AGL
overcast cloud deck at 1000 feet AGL
Weather: +RA  (heavy rain)

METAR text: LEAL 191930Z 31007KT 2000 RA FEW005 OVC010 13/12 Q1015 BECMG 06015KT
Conditions at: LEAL (ALICANTE/EL ALTE, ES) observed 1930 UTC 19 April 2019
Temperature: 13.0°C (55°F)
Dewpoint: 12.0°C (54°F) [RH = 94%]
Pressure (altimeter): 29.97 inches Hg (1015.0 mb)
Winds: from the NW (310 degrees) at 8 MPH (7 knots; 3.6 m/s)
Visibility: 1.24 miles (2.00 km)
Ceiling: 1000 feet AGL
Clouds: few clouds at 500 feet AGL
overcast cloud deck at 1000 feet AGL
Weather: RA  (moderate rain)

METAR text: LEAL 191900Z 30009KT 2000 -RA FEW005 OVC013 13/12 Q1015 BECMG 06015KT
Conditions at: LEAL (ALICANTE/EL ALTE, ES) observed 1900 UTC 19 April 2019
Temperature: 13.0°C (55°F)
Dewpoint: 12.0°C (54°F) [RH = 94%]
Pressure (altimeter): 29.97 inches Hg (1015.0 mb)
Winds: from the WNW (300 degrees) at 10 MPH (9 knots; 4.6 m/s)
Visibility: 1.24 miles (2.00 km)
Ceiling: 1300 feet AGL
Clouds: few clouds at 500 feet AGL
overcast cloud deck at 1300 feet AGL
Weather: -RA  (light rain)

METAR text: LEAL 191830Z 29010KT 2000 RA FEW036 OVC040 13/12 Q1015 BECMG 06015KT
Conditions at: LEAL (ALICANTE/EL ALTE, ES) observed 1830 UTC 19 April 2019
Temperature: 13.0°C (55°F)
Dewpoint: 12.0°C (54°F) [RH = 94%]
Pressure (altimeter): 29.97 inches Hg (1015.0 mb)
Winds: from the WNW (290 degrees) at 12 MPH (10 knots; 5.1 m/s)
Visibility: 1.24 miles (2.00 km)
Ceiling: 4000 feet AGL
Clouds: few clouds at 3600 feet AGL
overcast cloud deck at 4000 feet AGL
Weather: RA  (moderate rain)

METAR text: LEAL 191800Z 30009KT 9999 -RA FEW036 OVC040 13/11 Q1015 BECMG 06015KT
Conditions at: LEAL (ALICANTE/EL ALTE, ES) observed 1800 UTC 19 April 2019
Temperature: 13.0°C (55°F)
Dewpoint: 11.0°C (52°F) [RH = 88%]
Pressure (altimeter): 29.97 inches Hg (1015.0 mb)
Winds: from the WNW (300 degrees) at 10 MPH (9 knots; 4.6 m/s)
Visibility: 6 or more miles (10+ km)
Ceiling: 4000 feet AGL
Clouds: few clouds at 3600 feet AGL
overcast cloud deck at 4000 feet AGL
Weather: -RA  (light rain)

METAR text: LEAL 191730Z 32010KT 9999 -RA FEW036 OVC040 13/11 Q1015 BECMG 06015KT
Conditions at: LEAL (ALICANTE/EL ALTE, ES) observed 1730 UTC 19 April 2019
Temperature: 13.0°C (55°F)
Dewpoint: 11.0°C (52°F) [RH = 88%]
Pressure (altimeter): 29.97 inches Hg (1015.0 mb)
Winds: from the NW (320 degrees) at 12 MPH (10 knots; 5.1 m/s)
Visibility: 6 or more miles (10+ km)
Ceiling: 4000 feet AGL
Clouds: few clouds at 3600 feet AGL
overcast cloud deck at 4000 feet AGL
Weather: -RA  (light rain)

METAR text: LEAL 191700Z 33009KT 300V360 9999 -RA FEW036 OVC040 13/12 Q1015 BECMG 06015KT
Conditions at: LEAL (ALICANTE/EL ALTE, ES) observed 1700 UTC 19 April 2019
Temperature: 13.0°C (55°F)
Dewpoint: 12.0°C (54°F) [RH = 94%]
Pressure (altimeter): 29.97 inches Hg (1015.0 mb)
Winds: from the NNW (330 degrees) at 10 MPH (9 knots; 4.6 m/s)
Visibility: 6 or more miles (10+ km)
Ceiling: 4000 feet AGL
Clouds: few clouds at 3600 feet AGL
overcast cloud deck at 4000 feet AGL
Weather: -RA  (light rain)

METAR text: LEAL 191630Z 34009KT 280V020 5000 RA FEW036 OVC040 13/12 Q1015 NOSIG
Conditions at: LEAL (ALICANTE/EL ALTE, ES) observed 1630 UTC 19 April 2019
Temperature: 13.0°C (55°F)
Dewpoint: 12.0°C (54°F) [RH = 94%]
Pressure (altimeter): 29.97 inches Hg (1015.0 mb)
Winds: from the NNW (340 degrees) at 10 MPH (9 knots; 4.6 m/s)
Visibility: 3 miles ( 5 km)
Ceiling: 4000 feet AGL
Clouds: few clouds at 3600 feet AGL
overcast cloud deck at 4000 feet AGL
Weather: RA  (moderate rain)

METAR text: LEAL 191600Z 33009KT 310V010 9000 RA FEW036 OVC042 13/11 Q1015 NOSIG
Conditions at: LEAL (ALICANTE/EL ALTE, ES) observed 1600 UTC 19 April 2019
Temperature: 13.0°C (55°F)
Dewpoint: 11.0°C (52°F) [RH = 88%]
Pressure (altimeter): 29.97 inches Hg (1015.0 mb)
Winds: from the NNW (330 degrees) at 10 MPH (9 knots; 4.6 m/s)
Visibility: 6 miles ( 9 km)
Ceiling: 4200 feet AGL
Clouds: few clouds at 3600 feet AGL
overcast cloud deck at 4200 feet AGL
Weather: RA  (moderate rain)

METAR text: LEAL 191530Z 36007KT 330V030 8000 -RA FEW036 OVC048 13/11 Q1015 NOSIG
Conditions at: LEAL (ALICANTE/EL ALTE, ES) observed 1530 UTC 19 April 2019
Temperature: 13.0°C (55°F)
Dewpoint: 11.0°C (52°F) [RH = 88%]
Pressure (altimeter): 29.97 inches Hg (1015.0 mb)
Winds: from the N (360 degrees) at 8 MPH (7 knots; 3.6 m/s)
Visibility: 5 miles ( 8 km)
Ceiling: 4800 feet AGL
Clouds: few clouds at 3600 feet AGL
overcast cloud deck at 4800 feet AGL
Weather: -RA  (light rain)

METAR text: LEAL 191500Z 33006KT 300V360 6000 +RA FEW040 OVC048 13/11 Q1015 NOSIG
Conditions at: LEAL (ALICANTE/EL ALTE, ES) observed 1500 UTC 19 April 2019
Temperature: 13.0°C (55°F)
Dewpoint: 11.0°C (52°F) [RH = 88%]
Pressure (altimeter): 29.97 inches Hg (1015.0 mb)
Winds: from the NNW (330 degrees) at 7 MPH (6 knots; 3.1 m/s)
Visibility: 4 miles ( 6 km)
Ceiling: 4800 feet AGL
Clouds: few clouds at 4000 feet AGL
overcast cloud deck at 4800 feet AGL
Weather: +RA  (heavy rain)

METAR text: LEAL 191430Z 34004KT 300V010 9000 RA FEW040 OVC048 14/12 Q1015 NOSIG
Conditions at: LEAL (ALICANTE/EL ALTE, ES) observed 1430 UTC 19 April 2019
Temperature: 14.0°C (57°F)
Dewpoint: 12.0°C (54°F) [RH = 88%]
Pressure (altimeter): 29.97 inches Hg (1015.0 mb)
Winds: from the NNW (340 degrees) at 5 MPH (4 knots; 2.1 m/s)
Visibility: 6 miles ( 9 km)
Ceiling: 4800 feet AGL
Clouds: few clouds at 4000 feet AGL
overcast cloud deck at 4800 feet AGL
Weather: RA  (moderate rain)

METAR text: LEAL 191400Z 33005KT 220V010 7000 RA FEW040 OVC051 14/12 Q1015 NOSIG
Conditions at: LEAL (ALICANTE/EL ALTE, ES) observed 1400 UTC 19 April 2019
Temperature: 14.0°C (57°F)
Dewpoint: 12.0°C (54°F) [RH = 88%]
Pressure (altimeter): 29.97 inches Hg (1015.0 mb)
Winds: from the NNW (330 degrees) at 6 MPH (5 knots; 2.6 m/s)
Visibility: 4 miles ( 7 km)
Ceiling: 5100 feet AGL
Clouds: few clouds at 4000 feet AGL
overcast cloud deck at 5100 feet AGL
Weather: RA  (moderate rain)

METAR text: LEAL 191330Z 32005KT 250V360 9999 RA FEW040 OVC050 15/12 Q1015 NOSIG
Conditions at: LEAL (ALICANTE/EL ALTE, ES) observed 1330 UTC 19 April 2019
Temperature: 15.0°C (59°F)
Dewpoint: 12.0°C (54°F) [RH = 82%]
Pressure (altimeter): 29.97 inches Hg (1015.0 mb)
Winds: from the NW (320 degrees) at 6 MPH (5 knots; 2.6 m/s)
Visibility: 6 or more miles (10+ km)
Ceiling: 5000 feet AGL
Clouds: few clouds at 4000 feet AGL
overcast cloud deck at 5000 feet AGL
Weather: RA  (moderate rain)

METAR text: LEAL 191300Z 31005KT 9999 -RA FEW040 OVC056 15/12 Q1015 NOSIG
Conditions at: LEAL (ALICANTE/EL ALTE, ES) observed 1300 UTC 19 April 2019
Temperature: 15.0°C (59°F)
Dewpoint: 12.0°C (54°F) [RH = 82%]
Pressure (altimeter): 29.97 inches Hg (1015.0 mb)
Winds: from the NW (310 degrees) at 6 MPH (5 knots; 2.6 m/s)
Visibility: 6 or more miles (10+ km)
Ceiling: 5600 feet AGL
Clouds: few clouds at 4000 feet AGL
overcast cloud deck at 5600 feet AGL
Weather: -RA  (light rain)

METAR text: LEAL 191230Z 28003KT 240V330 9999 -RA FEW040 OVC060 15/12 Q1015 NOSIG
Conditions at: LEAL (ALICANTE/EL ALTE, ES) observed 1230 UTC 19 April 2019
Temperature: 15.0°C (59°F)
Dewpoint: 12.0°C (54°F) [RH = 82%]
Pressure (altimeter): 29.97 inches Hg (1015.0 mb)
Winds: from the W (280 degrees) at 3 MPH (3 knots; 1.5 m/s)
Visibility: 6 or more miles (10+ km)
Ceiling: 6000 feet AGL
Clouds: few clouds at 4000 feet AGL
overcast cloud deck at 6000 feet AGL
Weather: -RA  (light rain)

METAR text: LEAL 191200Z 26004KT 230V320 9999 -RA FEW040 OVC067 15/13 Q1015 NOSIG
Conditions at: LEAL (ALICANTE/EL ALTE, ES) observed 1200 UTC 19 April 2019
Temperature: 15.0°C (59°F)
Dewpoint: 13.0°C (55°F) [RH = 88%]
Pressure (altimeter): 29.97 inches Hg (1015.0 mb)
Winds: from the W (260 degrees) at 5 MPH (4 knots; 2.1 m/s)
Visibility: 6 or more miles (10+ km)
Ceiling: 6700 feet AGL
Clouds: few clouds at 4000 feet AGL
overcast cloud deck at 6700 feet AGL
Weather: -RA  (light rain)

METAR text: LEAL 191130Z 25007KT 9999 -DZ FEW040 OVC067 15/12 Q1015 NOSIG
Conditions at: LEAL (ALICANTE/EL ALTE, ES) observed 1130 UTC 19 April 2019
Temperature: 15.0°C (59°F)
Dewpoint: 12.0°C (54°F) [RH = 82%]
Pressure (altimeter): 29.97 inches Hg (1015.0 mb)
Winds: from the WSW (250 degrees) at 8 MPH (7 knots; 3.6 m/s)
Visibility: 6 or more miles (10+ km)
Ceiling: 6700 feet AGL
Clouds: few clouds at 4000 feet AGL
overcast cloud deck at 6700 feet AGL
Weather: -DZ  (light drizzle)

METAR text: LEAL 191100Z 25006KT 220V280 9999 -RA FEW040 OVC067 15/12 Q1015 NOSIG
Conditions at: LEAL (ALICANTE/EL ALTE, ES) observed 1100 UTC 19 April 2019
Temperature: 15.0°C (59°F)
Dewpoint: 12.0°C (54°F) [RH = 82%]
Pressure (altimeter): 29.97 inches Hg (1015.0 mb)
Winds: from the WSW (250 degrees) at 7 MPH (6 knots; 3.1 m/s)
Visibility: 6 or more miles (10+ km)
Ceiling: 6700 feet AGL
Clouds: few clouds at 4000 feet AGL
overcast cloud deck at 6700 feet AGL
Weather: -RA  (light rain)

METAR text: LEAL 191030Z 27009KT 250V310 9999 FEW040 OVC067 15/12 Q1015 NOSIG
Conditions at: LEAL (ALICANTE/EL ALTE, ES) observed 1030 UTC 19 April 2019
Temperature: 15.0°C (59°F)
Dewpoint: 12.0°C (54°F) [RH = 82%]
Pressure (altimeter): 29.97 inches Hg (1015.0 mb)
Winds: from the W (270 degrees) at 10 MPH (9 knots; 4.6 m/s)
Visibility: 6 or more miles (10+ km)
Ceiling: 6700 feet AGL
Clouds: few clouds at 4000 feet AGL
overcast cloud deck at 6700 feet AGL
Weather: no significant weather observed at this time

METAR text: LEAL 191000Z 27008KT 250V320 9999 -RA FEW040 OVC067 15/12 Q1015 NOSIG
Conditions at: LEAL (ALICANTE/EL ALTE, ES) observed 1000 UTC 19 April 2019
Temperature: 15.0°C (59°F)
Dewpoint: 12.0°C (54°F) [RH = 82%]
Pressure (altimeter): 29.97 inches Hg (1015.0 mb)
Winds: from the W (270 degrees) at 9 MPH (8 knots; 4.1 m/s)
Visibility: 6 or more miles (10+ km)
Ceiling: 6700 feet AGL
Clouds: few clouds at 4000 feet AGL
overcast cloud deck at 6700 feet AGL
Weather: -RA  (light rain)

METAR text: LEAL 190930Z 25006KT 230V290 9999 -SHRA FEW012 OVC067 ///TCU 14/12 Q1015 NOSIG
Conditions at: LEAL (ALICANTE/EL ALTE, ES) observed 0930 UTC 19 April 2019
Temperature: 14.0°C (57°F)
Dewpoint: 12.0°C (54°F) [RH = 88%]
Pressure (altimeter): 29.97 inches Hg (1015.0 mb)
Winds: from the WSW (250 degrees) at 7 MPH (6 knots; 3.1 m/s)
Visibility: 6 or more miles (10+ km)
Ceiling: 6700 feet AGL
Clouds: few clouds at 1200 feet AGL
overcast cloud deck at 6700 feet AGL
Weather: -SHRA  (light rain showers)

METAR text: LEAL 190900Z 25005KT 9999 -RA FEW012 OVC067 14/12 Q1015 NOSIG
Conditions at: LEAL (ALICANTE/EL ALTE, ES) observed 0900 UTC 19 April 2019
Temperature: 14.0°C (57°F)
Dewpoint: 12.0°C (54°F) [RH = 88%]
Pressure (altimeter): 29.97 inches Hg (1015.0 mb)
Winds: from the WSW (250 degrees) at 6 MPH (5 knots; 2.6 m/s)
Visibility: 6 or more miles (10+ km)
Ceiling: 6700 feet AGL
Clouds: few clouds at 1200 feet AGL
overcast cloud deck at 6700 feet AGL
Weather: -RA  (light rain)

METAR text: LEAL 190830Z 25007KT 9999 -RA FEW020 OVC067 13/12 Q1015 NOSIG
Conditions at: LEAL (ALICANTE/EL ALTE, ES) observed 0830 UTC 19 April 2019
Temperature: 13.0°C (55°F)
Dewpoint: 12.0°C (54°F) [RH = 94%]
Pressure (altimeter): 29.97 inches Hg (1015.0 mb)
Winds: from the WSW (250 degrees) at 8 MPH (7 knots; 3.6 m/s)
Visibility: 6 or more miles (10+ km)
Ceiling: 6700 feet AGL
Clouds: few clouds at 2000 feet AGL
overcast cloud deck at 6700 feet AGL
Weather: -RA  (light rain)

METAR text: LEAL 190800Z 26007KT 230V290 9999 -RA FEW020 OVC067 13/12 Q1015 NOSIG
Conditions at: LEAL (ALICANTE/EL ALTE, ES) observed 0800 UTC 19 April 2019
Temperature: 13.0°C (55°F)
Dewpoint: 12.0°C (54°F) [RH = 94%]
Pressure (altimeter): 29.97 inches Hg (1015.0 mb)
Winds: from the W (260 degrees) at 8 MPH (7 knots; 3.6 m/s)
Visibility: 6 or more miles (10+ km)
Ceiling: 6700 feet AGL
Clouds: few clouds at 2000 feet AGL
overcast cloud deck at 6700 feet AGL
Weather: -RA  (light rain)

METAR text: LEAL 190730Z 26008KT 9999 -RA FEW020TCU OVC065 13/12 Q1015 NOSIG
Conditions at: LEAL (ALICANTE/EL ALTE, ES) observed 0730 UTC 19 April 2019
Temperature: 13.0°C (55°F)
Dewpoint: 12.0°C (54°F) [RH = 94%]
Pressure (altimeter): 29.97 inches Hg (1015.0 mb)
Winds: from the W (260 degrees) at 9 MPH (8 knots; 4.1 m/s)
Visibility: 6 or more miles (10+ km)
Ceiling: 6500 feet AGL
Clouds: few clouds at 2000 feet AGL
overcast cloud deck at 6500 feet AGL
Weather: -RA  (light rain)

METAR text: LEAL 190700Z 28006KT 9999 -RA FEW020TCU OVC065 14/12 Q1015 NOSIG
Conditions at: LEAL (ALICANTE/EL ALTE, ES) observed 0700 UTC 19 April 2019
Temperature: 14.0°C (57°F)
Dewpoint: 12.0°C (54°F) [RH = 88%]
Pressure (altimeter): 29.97 inches Hg (1015.0 mb)
Winds: from the W (280 degrees) at 7 MPH (6 knots; 3.1 m/s)
Visibility: 6 or more miles (10+ km)
Ceiling: 6500 feet AGL
Clouds: few clouds at 2000 feet AGL
overcast cloud deck at 6500 feet AGL
Weather: -RA  (light rain)

METAR text: LEAL 190630Z 28004KT 250V310 9999 -RA FEW020TCU OVC065 14/13 Q1015 NOSIG
Conditions at: LEAL (ALICANTE/EL ALTE, ES) observed 0630 UTC 19 April 2019
Temperature: 14.0°C (57°F)
Dewpoint: 13.0°C (55°F) [RH = 94%]
Pressure (altimeter): 29.97 inches Hg (1015.0 mb)
Winds: from the W (280 degrees) at 5 MPH (4 knots; 2.1 m/s)
Visibility: 6 or more miles (10+ km)
Ceiling: 6500 feet AGL
Clouds: few clouds at 2000 feet AGL
overcast cloud deck at 6500 feet AGL
Weather: -RA  (light rain)

METAR text: LEAL 190600Z 31004KT 280V360 9999 -RA FEW020TCU BKN032 13/12 Q1015 NOSIG
Conditions at: LEAL (ALICANTE/EL ALTE, ES) observed 0600 UTC 19 April 2019
Temperature: 13.0°C (55°F)
Dewpoint: 12.0°C (54°F) [RH = 94%]
Pressure (altimeter): 29.97 inches Hg (1015.0 mb)
Winds: from the NW (310 degrees) at 5 MPH (4 knots; 2.1 m/s)
Visibility: 6 or more miles (10+ km)
Ceiling: 3200 feet AGL
Clouds: few clouds at 2000 feet AGL
broken clouds at 3200 feet AGL
Weather: -RA  (light rain)

METAR text: LEAL 190530Z VRB02KT 9999 -RA FEW020TCU BKN032 13/12 Q1015 NOSIG
Conditions at: LEAL (ALICANTE/EL ALTE, ES) observed 0530 UTC 19 April 2019
Temperature: 13.0°C (55°F)
Dewpoint: 12.0°C (54°F) [RH = 94%]
Pressure (altimeter): 29.97 inches Hg (1015.0 mb)
Winds: variable direction winds at 2 MPH (2 knots; 1.0 m/s)
Visibility: 6 or more miles (10+ km)
Ceiling: 3200 feet AGL
Clouds: few clouds at 2000 feet AGL
broken clouds at 3200 feet AGL
Weather: -RA  (light rain)

METAR text: LEAL 190500Z VRB02KT 9999 -RA FEW020TCU BKN032 13/12 Q1014 NOSIG
Conditions at: LEAL (ALICANTE/EL ALTE, ES) observed 0500 UTC 19 April 2019
Temperature: 13.0°C (55°F)
Dewpoint: 12.0°C (54°F) [RH = 94%]
Pressure (altimeter): 29.94 inches Hg (1014.0 mb)
Winds: variable direction winds at 2 MPH (2 knots; 1.0 m/s)
Visibility: 6 or more miles (10+ km)
Ceiling: 3200 feet AGL
Clouds: few clouds at 2000 feet AGL
broken clouds at 3200 feet AGL
Weather: -RA  (light rain)

METAR text: LEAL 190430Z 16005KT 120V220 9999 -RA FEW020TCU BKN032 13/12 Q1014 NOSIG
Conditions at: LEAL (ALICANTE/EL ALTE, ES) observed 0430 UTC 19 April 2019
Temperature: 13.0°C (55°F)
Dewpoint: 12.0°C (54°F) [RH = 94%]
Pressure (altimeter): 29.94 inches Hg (1014.0 mb)
Winds: from the SSE (160 degrees) at 6 MPH (5 knots; 2.6 m/s)
Visibility: 6 or more miles (10+ km)
Ceiling: 3200 feet AGL
Clouds: few clouds at 2000 feet AGL
broken clouds at 3200 feet AGL
Weather: -RA  (light rain)

METAR text: LEAL 190400Z 17005KT 100V220 9999 RA FEW020TCU BKN032 14/12 Q1014 NOSIG
Conditions at: LEAL (ALICANTE/EL ALTE, ES) observed 0400 UTC 19 April 2019
Temperature: 14.0°C (57°F)
Dewpoint: 12.0°C (54°F) [RH = 88%]
Pressure (altimeter): 29.94 inches Hg (1014.0 mb)
Winds: from the S (170 degrees) at 6 MPH (5 knots; 2.6 m/s)
Visibility: 6 or more miles (10+ km)
Ceiling: 3200 feet AGL
Clouds: few clouds at 2000 feet AGL
broken clouds at 3200 feet AGL
Weather: RA  (moderate rain)

METAR text: LEAL 190330Z 13004KT 100V180 9999 RA FEW020TCU BKN032 14/14 Q1014 NOSIG
Conditions at: LEAL (ALICANTE/EL ALTE, ES) observed 0330 UTC 19 April 2019
Temperature: 14.0°C (57°F)
Dewpoint: 14.0°C (57°F) [RH = 100%]
Pressure (altimeter): 29.94 inches Hg (1014.0 mb)
Winds: from the SE (130 degrees) at 5 MPH (4 knots; 2.1 m/s)
Visibility: 6 or more miles (10+ km)
Ceiling: 3200 feet AGL
Clouds: few clouds at 2000 feet AGL
broken clouds at 3200 feet AGL
Weather: RA  (moderate rain)

METAR text: LEAL 190300Z 08004KT 030V120 9999 -RA FEW020TCU BKN032 14/13 Q1014 NOSIG
Conditions at: LEAL (ALICANTE/EL ALTE, ES) observed 0300 UTC 19 April 2019
Temperature: 14.0°C (57°F)
Dewpoint: 13.0°C (55°F) [RH = 94%]
Pressure (altimeter): 29.94 inches Hg (1014.0 mb)
Winds: from the E (80 degrees) at 5 MPH (4 knots; 2.1 m/s)
Visibility: 6 or more miles (10+ km)
Ceiling: 3200 feet AGL
Clouds: few clouds at 2000 feet AGL
broken clouds at 3200 feet AGL
Weather: -RA  (light rain)

METAR text: LEAL 190230Z VRB01KT 9999 -RA FEW020TCU BKN036 14/13 Q1014 NOSIG
Conditions at: LEAL (ALICANTE/EL ALTE, ES) observed 0230 UTC 19 April 2019
Temperature: 14.0°C (57°F)
Dewpoint: 13.0°C (55°F) [RH = 94%]
Pressure (altimeter): 29.94 inches Hg (1014.0 mb)
Winds: variable direction winds at 1 MPH (1 knots; 0.5 m/s)
Visibility: 6 or more miles (10+ km)
Ceiling: 3600 feet AGL
Clouds: few clouds at 2000 feet AGL
broken clouds at 3600 feet AGL
Weather: -RA  (light rain)

METAR text: LEAL 190207Z 00000KT 3000 SHRA FEW020TCU BKN055 14/13 Q1014 TEMPO 2000
Conditions at: LEAL (ALICANTE/EL ALTE, ES) observed 0207 UTC 19 April 2019
Temperature: 14.0°C (57°F)
Dewpoint: 13.0°C (55°F) [RH = 94%]
Pressure (altimeter): 29.94 inches Hg (1014.0 mb)
Winds: calm
Visibility: 1.86 miles (2.99 km)
Ceiling: 5500 feet AGL
Clouds: few clouds at 2000 feet AGL
broken clouds at 5500 feet AGL
Weather: SHRA  (rain showers)

METAR text: LEAL 190200Z VRB02KT 9999 RA FEW020 BKN055 14/13 Q1014 NOSIG
Conditions at: LEAL (ALICANTE/EL ALTE, ES) observed 0200 UTC 19 April 2019
Temperature: 14.0°C (57°F)
Dewpoint: 13.0°C (55°F) [RH = 94%]
Pressure (altimeter): 29.94 inches Hg (1014.0 mb)
Winds: variable direction winds at 2 MPH (2 knots; 1.0 m/s)
Visibility: 6 or more miles (10+ km)
Ceiling: 5500 feet AGL
Clouds: few clouds at 2000 feet AGL
broken clouds at 5500 feet AGL
Weather: RA  (moderate rain)

METAR text: LEAL 190130Z VRB01KT 9999 -RA FEW020 BKN055 14/12 Q1014 NOSIG
Conditions at: LEAL (ALICANTE/EL ALTE, ES) observed 0130 UTC 19 April 2019
Temperature: 14.0°C (57°F)
Dewpoint: 12.0°C (54°F) [RH = 88%]
Pressure (altimeter): 29.94 inches Hg (1014.0 mb)
Winds: variable direction winds at 1 MPH (1 knots; 0.5 m/s)
Visibility: 6 or more miles (10+ km)
Ceiling: 5500 feet AGL
Clouds: few clouds at 2000 feet AGL
broken clouds at 5500 feet AGL
Weather: -RA  (light rain)

METAR text: LEAL 190100Z 00000KT 9999 -RA FEW020 BKN055 14/12 Q1015 NOSIG
Conditions at: LEAL (ALICANTE/EL ALTE, ES) observed 0100 UTC 19 April 2019
Temperature: 14.0°C (57°F)
Dewpoint: 12.0°C (54°F) [RH = 88%]
Pressure (altimeter): 29.97 inches Hg (1015.0 mb)
Winds: calm
Visibility: 6 or more miles (10+ km)
Ceiling: 5500 feet AGL
Clouds: few clouds at 2000 feet AGL
broken clouds at 5500 feet AGL
Weather: -RA  (light rain)

METAR text: LEAL 190030Z 10003KT 9999 -RA FEW020 BKN055 14/11 Q1014 NOSIG
Conditions at: LEAL (ALICANTE/EL ALTE, ES) observed 0030 UTC 19 April 2019
Temperature: 14.0°C (57°F)
Dewpoint: 11.0°C (52°F) [RH = 82%]
Pressure (altimeter): 29.94 inches Hg (1014.0 mb)
Winds: from the E (100 degrees) at 3 MPH (3 knots; 1.5 m/s)
Visibility: 6 or more miles (10+ km)
Ceiling: 5500 feet AGL
Clouds: few clouds at 2000 feet AGL
broken clouds at 5500 feet AGL
Weather: -RA  (light rain)

METAR text: LEAL 190000Z VRB01KT 9999 -RA FEW020 BKN055 14/12 Q1014 NOSIG
Conditions at: LEAL (ALICANTE/EL ALTE, ES) observed 0000 UTC 19 April 2019
Temperature: 14.0°C (57°F)
Dewpoint: 12.0°C (54°F) [RH = 88%]
Pressure (altimeter): 29.94 inches Hg (1014.0 mb)
Winds: variable direction winds at 1 MPH (1 knots; 0.5 m/s)
Visibility: 6 or more miles (10+ km)
Ceiling: 5500 feet AGL
Clouds: few clouds at 2000 feet AGL
broken clouds at 5500 feet AGL
Weather: -RA  (light rain)

METAR text: LEAL 182330Z 01003KT 300V050 9999 -RA FEW020 BKN055 14/11 Q1014 NOSIG
Conditions at: LEAL (ALICANTE/EL ALTE, ES) observed 2330 UTC 18 April 2019
Temperature: 14.0°C (57°F)
Dewpoint: 11.0°C (52°F) [RH = 82%]
Pressure (altimeter): 29.94 inches Hg (1014.0 mb)
Winds: from the N (10 degrees) at 3 MPH (3 knots; 1.5 m/s)
Visibility: 6 or more miles (10+ km)
Ceiling: 5500 feet AGL
Clouds: few clouds at 2000 feet AGL
broken clouds at 5500 feet AGL
Weather: -RA  (light rain)

METAR text: LEAL 182300Z VRB02KT 9999 -RA FEW020 BKN055 15/11 Q1014 NOSIG
Conditions at: LEAL (ALICANTE/EL ALTE, ES) observed 2300 UTC 18 April 2019
Temperature: 15.0°C (59°F)
Dewpoint: 11.0°C (52°F) [RH = 77%]
Pressure (altimeter): 29.94 inches Hg (1014.0 mb)
Winds: variable direction winds at 2 MPH (2 knots; 1.0 m/s)
Visibility: 6 or more miles (10+ km)
Ceiling: 5500 feet AGL
Clouds: few clouds at 2000 feet AGL
broken clouds at 5500 feet AGL
Weather: -RA  (light rain)

METAR text: LEAL 182230Z 00000KT 9999 FEW020 BKN055 14/10 Q1014 NOSIG
Conditions at: LEAL (ALICANTE/EL ALTE, ES) observed 2230 UTC 18 April 2019
Temperature: 14.0°C (57°F)
Dewpoint: 10.0°C (50°F) [RH = 77%]
Pressure (altimeter): 29.94 inches Hg (1014.0 mb)
Winds: calm
Visibility: 6 or more miles (10+ km)
Ceiling: 5500 feet AGL
Clouds: few clouds at 2000 feet AGL
broken clouds at 5500 feet AGL
Weather: no significant weather observed at this time

METAR text: LEAL 182200Z VRB02KT 9999 FEW020 BKN055 14/11 Q1014 NOSIG
Conditions at: LEAL (ALICANTE/EL ALTE, ES) observed 2200 UTC 18 April 2019
Temperature: 14.0°C (57°F)
Dewpoint: 11.0°C (52°F) [RH = 82%]
Pressure (altimeter): 29.94 inches Hg (1014.0 mb)
Winds: variable direction winds at 2 MPH (2 knots; 1.0 m/s)
Visibility: 6 or more miles (10+ km)
Ceiling: 5500 feet AGL
Clouds: few clouds at 2000 feet AGL
broken clouds at 5500 feet AGL
Weather: no significant weather observed at this time

METAR text: LEAL 182130Z VRB02KT 9999 FEW020 BKN055 14/11 Q1013 NOSIG
Conditions at: LEAL (ALICANTE/EL ALTE, ES) observed 2130 UTC 18 April 2019
Temperature: 14.0°C (57°F)
Dewpoint: 11.0°C (52°F) [RH = 82%]
Pressure (altimeter): 29.91 inches Hg (1013.0 mb)
Winds: variable direction winds at 2 MPH (2 knots; 1.0 m/s)
Visibility: 6 or more miles (10+ km)
Ceiling: 5500 feet AGL
Clouds: few clouds at 2000 feet AGL
broken clouds at 5500 feet AGL
Weather: no significant weather observed at this time

METAR text: LEAL 182100Z 22005KT 9999 FEW020 BKN055 14/11 Q1014 NOSIG
Conditions at: LEAL (ALICANTE/EL ALTE, ES) observed 2100 UTC 18 April 2019
Temperature: 14.0°C (57°F)
Dewpoint: 11.0°C (52°F) [RH = 82%]
Pressure (altimeter): 29.94 inches Hg (1014.0 mb)
Winds: from the SW (220 degrees) at 6 MPH (5 knots; 2.6 m/s)
Visibility: 6 or more miles (10+ km)
Ceiling: 5500 feet AGL
Clouds: few clouds at 2000 feet AGL
broken clouds at 5500 feet AGL
Weather: no significant weather observed at this time

METAR text: LEAL 182030Z 22004KT 180V250 9999 FEW020 BKN044 14/11 Q1013 NOSIG
Conditions at: LEAL (ALICANTE/EL ALTE, ES) observed 2030 UTC 18 April 2019
Temperature: 14.0°C (57°F)
Dewpoint: 11.0°C (52°F) [RH = 82%]
Pressure (altimeter): 29.91 inches Hg (1013.0 mb)
Winds: from the SW (220 degrees) at 5 MPH (4 knots; 2.1 m/s)
Visibility: 6 or more miles (10+ km)
Ceiling: 4400 feet AGL
Clouds: few clouds at 2000 feet AGL
broken clouds at 4400 feet AGL
Weather: no significant weather observed at this time

METAR text: LEAL 182000Z 21005KT 180V240 9999 FEW020 BKN044 15/11 Q1013 NOSIG
Conditions at: LEAL (ALICANTE/EL ALTE, ES) observed 2000 UTC 18 April 2019
Temperature: 15.0°C (59°F)
Dewpoint: 11.0°C (52°F) [RH = 77%]
Pressure (altimeter): 29.91 inches Hg (1013.0 mb)
Winds: from the SSW (210 degrees) at 6 MPH (5 knots; 2.6 m/s)
Visibility: 6 or more miles (10+ km)
Ceiling: 4400 feet AGL
Clouds: few clouds at 2000 feet AGL
broken clouds at 4400 feet AGL
Weather: no significant weather observed at this time

METAR text: LEAL 181930Z 23005KT 190V270 9999 -RA FEW020 BKN044 15/11 Q1012 NOSIG
Conditions at: LEAL (ALICANTE/EL ALTE, ES) observed 1930 UTC 18 April 2019
Temperature: 15.0°C (59°F)
Dewpoint: 11.0°C (52°F) [RH = 77%]
Pressure (altimeter): 29.88 inches Hg (1012.0 mb)
Winds: from the SW (230 degrees) at 6 MPH (5 knots; 2.6 m/s)
Visibility: 6 or more miles (10+ km)
Ceiling: 4400 feet AGL
Clouds: few clouds at 2000 feet AGL
broken clouds at 4400 feet AGL
Weather: -RA  (light rain)

METAR text: LEAL 181900Z 24007KT 200V270 9999 -RA FEW020 BKN044 15/10 Q1012 NOSIG
Conditions at: LEAL (ALICANTE/EL ALTE, ES) observed 1900 UTC 18 April 2019
Temperature: 15.0°C (59°F)
Dewpoint: 10.0°C (50°F) [RH = 72%]
Pressure (altimeter): 29.88 inches Hg (1012.0 mb)
Winds: from the WSW (240 degrees) at 8 MPH (7 knots; 3.6 m/s)
Visibility: 6 or more miles (10+ km)
Ceiling: 4400 feet AGL
Clouds: few clouds at 2000 feet AGL
broken clouds at 4400 feet AGL
Weather: -RA  (light rain)

METAR text: LEAL 181830Z 24009G20KT 210V280 9999 -RA FEW020 BKN044 17/09 Q1011 NOSIG
Conditions at: LEAL (ALICANTE/EL ALTE, ES) observed 1830 UTC 18 April 2019
Temperature: 17.0°C (63°F)
Dewpoint: 9.0°C (48°F) [RH = 59%]
Pressure (altimeter): 29.85 inches Hg (1011.0 mb)
Winds: from the WSW (240 degrees) at 10 MPH (9 knots; 4.6 m/s)
gusting to 23 MPH (20 knots; 10.3 m/s)
Visibility: 6 or more miles (10+ km)
Ceiling: 4400 feet AGL
Clouds: few clouds at 2000 feet AGL
broken clouds at 4400 feet AGL
Weather: -RA  (light rain)

METAR text: LEAL 181800Z 01010KT 340V040 9999 FEW020 BKN044 18/08 Q1009 NOSIG
Conditions at: LEAL (ALICANTE/EL ALTE, ES) observed 1800 UTC 18 April 2019
Temperature: 18.0°C (64°F)
Dewpoint: 8.0°C (46°F) [RH = 52%]
Pressure (altimeter): 29.79 inches Hg (1009.0 mb)
Winds: from the N (10 degrees) at 12 MPH (10 knots; 5.1 m/s)
Visibility: 6 or more miles (10+ km)
Ceiling: 4400 feet AGL
Clouds: few clouds at 2000 feet AGL
broken clouds at 4400 feet AGL
Weather: no significant weather observed at this time

METAR text: LEAL 181730Z 32011KT 9999 FEW020 OVC044 17/07 Q1010 NOSIG
Conditions at: LEAL (ALICANTE/EL ALTE, ES) observed 1730 UTC 18 April 2019
Temperature: 17.0°C (63°F)
Dewpoint: 7.0°C (45°F) [RH = 52%]
Pressure (altimeter): 29.82 inches Hg (1010.0 mb)
Winds: from the NW (320 degrees) at 13 MPH (11 knots; 5.7 m/s)
Visibility: 6 or more miles (10+ km)
Ceiling: 4400 feet AGL
Clouds: few clouds at 2000 feet AGL
overcast cloud deck at 4400 feet AGL
Weather: no significant weather observed at this time

METAR text: LEAL 181700Z 30011KT 9999 FEW020 OVC044 17/08 Q1011 NOSIG
Conditions at: LEAL (ALICANTE/EL ALTE, ES) observed 1700 UTC 18 April 2019
Temperature: 17.0°C (63°F)
Dewpoint: 8.0°C (46°F) [RH = 55%]
Pressure (altimeter): 29.85 inches Hg (1011.0 mb)
Winds: from the WNW (300 degrees) at 13 MPH (11 knots; 5.7 m/s)
Visibility: 6 or more miles (10+ km)
Ceiling: 4400 feet AGL
Clouds: few clouds at 2000 feet AGL
overcast cloud deck at 4400 feet AGL
Weather: no significant weather observed at this time

METAR text: LEAL 181630Z 30016KT 9999 FEW020 OVC044 17/08 Q1011 NOSIG
Conditions at: LEAL (ALICANTE/EL ALTE, ES) observed 1630 UTC 18 April 2019
Temperature: 17.0°C (63°F)
Dewpoint: 8.0°C (46°F) [RH = 55%]
Pressure (altimeter): 29.85 inches Hg (1011.0 mb)
Winds: from the WNW (300 degrees) at 18 MPH (16 knots; 8.2 m/s)
Visibility: 6 or more miles (10+ km)
Ceiling: 4400 feet AGL
Clouds: few clouds at 2000 feet AGL
overcast cloud deck at 4400 feet AGL
Weather: no significant weather observed at this time

METAR text: LEAL 181600Z 29017KT 260V330 9999 FEW020 OVC044 17/08 Q1011 NOSIG
Conditions at: LEAL (ALICANTE/EL ALTE, ES) observed 1600 UTC 18 April 2019
Temperature: 17.0°C (63°F)
Dewpoint: 8.0°C (46°F) [RH = 55%]
Pressure (altimeter): 29.85 inches Hg (1011.0 mb)
Winds: from the WNW (290 degrees) at 20 MPH (17 knots; 8.7 m/s)
Visibility: 6 or more miles (10+ km)
Ceiling: 4400 feet AGL
Clouds: few clouds at 2000 feet AGL
overcast cloud deck at 4400 feet AGL
Weather: no significant weather observed at this time

METAR text: LEAL 181530Z 30018KT 270V330 9999 FEW020 OVC044 17/08 Q1011 NOSIG
Conditions at: LEAL (ALICANTE/EL ALTE, ES) observed 1530 UTC 18 April 2019
Temperature: 17.0°C (63°F)
Dewpoint: 8.0°C (46°F) [RH = 55%]
Pressure (altimeter): 29.85 inches Hg (1011.0 mb)
Winds: from the WNW (300 degrees) at 21 MPH (18 knots; 9.3 m/s)
Visibility: 6 or more miles (10+ km)
Ceiling: 4400 feet AGL
Clouds: few clouds at 2000 feet AGL
overcast cloud deck at 4400 feet AGL
Weather: no significant weather observed at this time

METAR text: LEAL 181500Z 29020KT 9999 FEW020 OVC044 17/09 Q1010 NOSIG
Conditions at: LEAL (ALICANTE/EL ALTE, ES) observed 1500 UTC 18 April 2019
Temperature: 17.0°C (63°F)
Dewpoint: 9.0°C (48°F) [RH = 59%]
Pressure (altimeter): 29.82 inches Hg (1010.0 mb)
Winds: from the WNW (290 degrees) at 23 MPH (20 knots; 10.3 m/s)
Visibility: 6 or more miles (10+ km)
Ceiling: 4400 feet AGL
Clouds: few clouds at 2000 feet AGL
overcast cloud deck at 4400 feet AGL
Weather: no significant weather observed at this time

METAR text: LEAL 181430Z 28011KT 250V320 9999 FEW020 OVC044 19/11 Q1010 NOSIG
Conditions at: LEAL (ALICANTE/EL ALTE, ES) observed 1430 UTC 18 April 2019
Temperature: 19.0°C (66°F)
Dewpoint: 11.0°C (52°F) [RH = 60%]
Pressure (altimeter): 29.82 inches Hg (1010.0 mb)
Winds: from the W (280 degrees) at 13 MPH (11 knots; 5.7 m/s)
Visibility: 6 or more miles (10+ km)
Ceiling: 4400 feet AGL
Clouds: few clouds at 2000 feet AGL
overcast cloud deck at 4400 feet AGL
Weather: no significant weather observed at this time

METAR text: LEAL 181400Z 28013KT 9999 FEW020 OVC044 19/11 Q1010 NOSIG
Conditions at: LEAL (ALICANTE/EL ALTE, ES) observed 1400 UTC 18 April 2019
Temperature: 19.0°C (66°F)
Dewpoint: 11.0°C (52°F) [RH = 60%]
Pressure (altimeter): 29.82 inches Hg (1010.0 mb)
Winds: from the W (280 degrees) at 15 MPH (13 knots; 6.7 m/s)
Visibility: 6 or more miles (10+ km)
Ceiling: 4400 feet AGL
Clouds: few clouds at 2000 feet AGL
overcast cloud deck at 4400 feet AGL
Weather: no significant weather observed at this time

METAR text: LEAL 181330Z 27005KT 210V310 9999 FEW020 BKN040 19/10 Q1011 NOSIG
Conditions at: LEAL (ALICANTE/EL ALTE, ES) observed 1330 UTC 18 April 2019
Temperature: 19.0°C (66°F)
Dewpoint: 10.0°C (50°F) [RH = 56%]
Pressure (altimeter): 29.85 inches Hg (1011.0 mb)
Winds: from the W (270 degrees) at 6 MPH (5 knots; 2.6 m/s)
Visibility: 6 or more miles (10+ km)
Ceiling: 4000 feet AGL
Clouds: few clouds at 2000 feet AGL
broken clouds at 4000 feet AGL
Weather: no significant weather observed at this time

METAR text: LEAL 181300Z 06003KT 360V140 9999 FEW020 BKN040 19/10 Q1010 NOSIG
Conditions at: LEAL (ALICANTE/EL ALTE, ES) observed 1300 UTC 18 April 2019
Temperature: 19.0°C (66°F)
Dewpoint: 10.0°C (50°F) [RH = 56%]
Pressure (altimeter): 29.82 inches Hg (1010.0 mb)
Winds: from the ENE (60 degrees) at 3 MPH (3 knots; 1.5 m/s)
Visibility: 6 or more miles (10+ km)
Ceiling: 4000 feet AGL
Clouds: few clouds at 2000 feet AGL
broken clouds at 4000 feet AGL
Weather: no significant weather observed at this time

Forecast for: LEAL (ALICANTE/EL ALTE, ES)
Text: TAF LEAL 192300Z 2000/2024 06020KT 9999 BKN016 TX18/2012Z TN14/2006Z
Forecast period: 0000 UTC 20 April 2019 to 0000 UTC 21 April 2019
Forecast type: FROM: standard forecast or significant change
Winds: from the ENE (60 degrees) at 23 MPH (20 knots; 10.3 m/s)
Visibility: 6 or more miles 10+ km)
Ceiling: 1600 feet AGL
Clouds: broken clouds at 1600 feet AGL
Weather: no significant weather forecast for this period
Text: TEMPO 2000/2016 06025G35KT 2000 RA BKN010
Forecast period: 0000 to 1600 UTC 20 April 2019
Forecast type: TEMPORARY: The following changes expected for less than half the time period
Winds: from the ENE (60 degrees) at 29 MPH (25 knots; 12.9 m/s)
gusting to 40 MPH (35 knots; 18.0 m/s)
Visibility: 1.24 miles (2.00 km)
Ceiling: 1000 feet AGL
Clouds: broken clouds at 1000 feet AGL
Weather: RA  (moderate rain)
Text: PROB40
Forecast period: 0000 to 1200 UTC 20 April 2019
Forecast type: TEMPORARY: The following changes expected for less than half the time period
Winds: from the ENE (60 degrees) at 32 MPH (28 knots; 14.4 m/s)
gusting to 53 MPH (46 knots; 23.7 m/s)
Visibility: missing
Ceiling: unknown
Clouds: missing
Weather: no significant weather forecast for this period
Text: TEMPO 2000/2012 06028G46KT
Forecast period: 0000 to 1500 UTC 20 April 2019
Forecast type: TEMPORARY: The following changes expected for less than half the time period
Visibility: 1.86 miles (2.99 km)
Ceiling: 1400 feet AGL
Clouds: broken clouds at 1400 feet AGL
scattered clouds at 4000 feet AGL
Weather: TSRA  (rain associated with thunderstorm(s))